createdAt,value
2019-04-14T00:00:07.603Z,36.48
2019-04-14T00:02:42.502Z,36.10
2019-04-14T00:05:21.082Z,35.17
2019-04-14T00:07:53.796Z,36.25
2019-04-14T00:10:29.676Z,36.68
2019-04-14T00:13:04.567Z,36.25
2019-04-14T00:15:45.050Z,34.88
2019-04-14T00:18:18.597Z,36.25
2019-04-14T00:20:57.711Z,34.23
2019-04-14T00:23:28.267Z,36.23
2019-04-14T00:26:27.383Z,34.80
2019-04-14T00:29:00.397Z,34.98
2019-04-14T00:31:34.819Z,34.80
2019-04-14T00:34:15.892Z,37.08
2019-04-14T00:37:07.820Z,35.50
2019-04-14T00:39:41.997Z,33.35
2019-04-14T00:42:36.465Z,38.58
2019-04-14T00:45:36.994Z,35.13
2019-04-14T00:48:20.671Z,35.35
2019-04-14T00:50:53.970Z,36.50
2019-04-14T00:53:29.746Z,37.40
2019-04-14T00:56:02.086Z,36.50
2019-04-14T00:58:34.311Z,37.35
2019-04-14T01:01:06.840Z,34.35
2019-04-14T01:03:39.373Z,39.92
2019-04-14T01:06:14.207Z,37.40
2019-04-14T01:08:48.888Z,38.00
2019-04-14T01:11:20.369Z,35.63
2019-04-14T01:13:57.156Z,36.00
2019-04-14T01:16:30.404Z,36.70
2019-04-14T01:19:03.274Z,37.70
2019-04-14T01:21:43.619Z,40.17
2019-04-14T01:24:18.563Z,39.45
2019-04-14T01:26:55.003Z,40.40
2019-04-14T01:29:38.455Z,39.10
2019-04-14T01:32:19.651Z,38.05
2019-04-14T01:34:53.662Z,37.15
2019-04-14T01:37:35.445Z,38.17
2019-04-14T01:40:16.355Z,36.08
2019-04-14T01:42:48.493Z,36.58
2019-04-14T01:45:21.668Z,36.88
2019-04-14T01:47:59.895Z,37.65
2019-04-14T01:50:36.568Z,39.03
2019-04-14T01:53:18.255Z,37.88
2019-04-14T01:56:10.408Z,37.40
2019-04-14T01:58:44.671Z,40.43
2019-04-14T02:01:21.989Z,38.50
2019-04-14T02:03:58.489Z,39.33
2019-04-14T02:06:34.001Z,37.28
2019-04-14T02:09:11.914Z,33.70
2019-04-14T02:11:49.385Z,38.65
2019-04-14T02:14:26.154Z,35.50
2019-04-14T02:17:09.479Z,41.25
2019-04-14T02:19:43.896Z,38.98
2019-04-14T02:22:18.282Z,38.85
2019-04-14T02:24:52.816Z,38.08
2019-04-14T02:27:25.358Z,37.93
2019-04-14T02:30:06.495Z,37.95
2019-04-14T02:33:17.194Z,41.28
2019-04-14T02:35:57.729Z,38.17
2019-04-14T02:38:37.268Z,40.70
2019-04-14T02:41:05.836Z,36.35
2019-04-14T02:43:37.581Z,41.15
2019-04-14T02:48:55.503Z,39.63
2019-04-14T02:56:52.516Z,39.23
2019-04-14T02:59:28.899Z,39.90
2019-04-14T03:04:54.772Z,40.38
2019-04-14T03:07:23.163Z,39.25
2019-04-14T03:10:03.267Z,37.20
2019-04-14T03:15:20.077Z,39.95
2019-04-14T03:18:16.494Z,40.12
2019-04-14T03:20:39.525Z,35.70
2019-04-14T03:23:33.139Z,40.48
2019-04-14T03:26:18.465Z,41.48
2019-04-14T03:29:08.167Z,41.75
2019-04-14T03:34:37.152Z,41.28
2019-04-14T03:37:31.955Z,42.43
2019-04-14T03:39:46.245Z,43.40
2019-04-14T03:42:28.703Z,41.58
2019-04-14T03:44:56.514Z,39.70
2019-04-14T03:50:07.103Z,39.25
2019-04-14T03:53:05.933Z,38.92
2019-04-14T03:55:16.248Z,36.20
2019-04-14T03:57:46.297Z,37.13
2019-04-14T04:00:22.661Z,39.05
2019-04-14T04:02:57.648Z,40.40
2019-04-14T04:05:34.506Z,38.17
2019-04-14T04:08:11.402Z,40.90
2019-04-14T04:10:46.430Z,41.63
2019-04-14T04:13:21.576Z,40.92
2019-04-14T04:16:00.469Z,40.12
2019-04-14T04:18:50.906Z,41.50
2019-04-14T04:21:26.971Z,39.18
2019-04-14T04:24:13.197Z,40.15
2019-04-14T04:26:51.778Z,41.23
2019-04-14T04:29:33.018Z,41.45
2019-04-14T04:32:14.326Z,38.08
2019-04-14T04:34:56.324Z,38.02
2019-04-14T04:37:30.329Z,39.63
2019-04-14T04:40:07.134Z,41.60
2019-04-14T04:42:39.502Z,38.70
2019-04-14T04:45:11.282Z,39.75
2019-04-14T04:47:44.797Z,39.35
2019-04-14T04:50:19.222Z,36.53
2019-04-14T04:52:51.785Z,37.23
2019-04-14T04:55:26.600Z,40.10
2019-04-14T04:58:03.995Z,39.18
2019-04-14T05:00:48.564Z,38.35
2019-04-14T05:03:23.231Z,38.60
2019-04-14T05:06:23.263Z,39.75
2019-04-14T05:09:12.403Z,39.78
2019-04-14T05:12:09.046Z,39.53
2019-04-14T05:15:01.244Z,41.25
2019-04-14T05:17:47.393Z,40.45
2019-04-14T05:20:31.280Z,39.95
2019-04-14T05:23:05.816Z,40.08
2019-04-14T05:25:43.094Z,38.92
2019-04-14T05:28:15.478Z,41.05
2019-04-14T05:30:48.425Z,41.95
2019-04-14T05:33:29.338Z,42.00
2019-04-14T05:36:10.705Z,45.03
2019-04-14T05:38:51.747Z,43.10
2019-04-14T05:41:35.410Z,47.23
2019-04-14T05:44:14.324Z,43.25
2019-04-14T05:46:51.358Z,41.83
2019-04-14T05:49:34.861Z,40.25
2019-04-14T05:52:03.345Z,42.85
2019-04-14T05:54:49.348Z,46.42
2019-04-14T05:57:28.398Z,52.90
2019-04-14T06:00:08.101Z,45.35
2019-04-14T06:02:40.024Z,47.00
2019-04-14T06:05:14.546Z,43.17
2019-04-14T06:07:47.650Z,42.58
2019-04-14T06:10:25.342Z,41.92
2019-04-14T06:12:57.501Z,42.20
2019-04-14T06:15:39.343Z,41.33
2019-04-14T06:18:19.350Z,42.17
2019-04-14T06:20:57.338Z,48.33
2019-04-14T06:23:42.335Z,46.68
2019-04-14T06:26:19.729Z,49.35
2019-04-14T06:28:54.229Z,46.90
2019-04-14T06:31:30.348Z,46.23
2019-04-14T06:34:05.949Z,104.20
2019-04-14T06:36:48.977Z,62.62
2019-04-14T06:39:38.340Z,44.03
2019-04-14T06:42:14.800Z,41.90
2019-04-14T06:44:48.619Z,48.42
2019-04-14T06:47:30.096Z,68.62
2019-04-14T06:50:11.063Z,59.93
2019-04-14T06:52:45.894Z,52.43
2019-04-14T06:55:18.880Z,54.58
2019-04-14T06:57:51.256Z,49.75
2019-04-14T07:00:30.356Z,48.08
2019-04-14T07:03:10.366Z,50.98
2019-04-14T07:05:51.195Z,40.40
2019-04-14T07:08:26.647Z,47.58
2019-04-14T07:11:06.070Z,46.35
2019-04-14T07:13:47.762Z,51.98
2019-04-14T07:16:16.666Z,45.03
2019-04-14T07:18:50.168Z,61.35
2019-04-14T07:21:28.981Z,54.70
2019-04-14T07:24:09.351Z,57.45
2019-04-14T07:26:52.738Z,44.95
2019-04-14T07:29:28.373Z,44.05
2019-04-14T07:32:14.094Z,45.20
2019-04-14T07:34:48.947Z,45.90
2019-04-14T07:37:42.360Z,51.33
2019-04-14T07:40:35.737Z,52.93
2019-04-14T07:43:10.494Z,54.75
2019-04-14T07:45:51.875Z,51.90
2019-04-14T07:48:33.555Z,43.25
2019-04-14T07:51:17.377Z,41.10
2019-04-14T07:53:56.538Z,41.75
2019-04-14T07:56:52.375Z,42.88
2019-04-14T07:59:49.373Z,43.87
2019-04-14T08:02:27.360Z,44.25
2019-04-14T08:05:05.201Z,46.70
2019-04-14T08:07:42.370Z,46.48
2019-04-14T08:10:18.255Z,43.50
2019-04-14T08:12:55.838Z,41.68
2019-04-14T08:15:33.236Z,52.70
2019-04-14T08:18:11.321Z,46.63
2019-04-14T08:20:49.034Z,43.73
2019-04-14T08:23:28.379Z,37.98
2019-04-14T08:25:59.812Z,40.25
2019-04-14T08:28:35.250Z,45.05
2019-04-14T08:31:07.232Z,49.95
2019-04-14T08:33:44.376Z,47.58
2019-04-14T08:36:17.999Z,41.65
2019-04-14T08:38:56.419Z,33.95
2019-04-14T08:41:34.383Z,32.80
2019-04-14T08:44:15.277Z,33.33
2019-04-14T08:49:42.393Z,38.30
2019-04-14T08:52:36.387Z,35.38
2019-04-14T08:55:11.060Z,32.33
2019-04-14T08:57:49.274Z,41.40
2019-04-14T09:00:27.377Z,27.80
2019-04-14T09:03:11.652Z,28.77
2019-04-14T09:06:02.319Z,44.93
2019-04-14T09:11:38.715Z,30.72
2019-04-14T09:14:15.995Z,29.65
2019-04-14T09:16:57.424Z,35.05
2019-04-14T09:19:31.176Z,31.10
2019-04-14T09:22:07.257Z,33.73
2019-04-14T09:24:40.219Z,42.20
2019-04-14T09:27:15.669Z,51.58
2019-04-14T09:29:55.845Z,33.45
2019-04-14T09:32:28.715Z,34.35
2019-04-14T09:35:03.954Z,32.13
2019-04-14T09:37:36.106Z,33.30
2019-04-14T09:40:14.124Z,32.67
2019-04-14T09:42:57.656Z,30.77
2019-04-14T09:45:28.273Z,32.88
2019-04-14T09:48:08.407Z,32.38
2019-04-14T09:50:47.774Z,35.03
2019-04-14T09:53:19.942Z,33.73
2019-04-14T09:55:55.268Z,31.90
2019-04-14T09:58:31.852Z,34.15
2019-04-14T10:01:09.100Z,35.58
2019-04-14T10:03:51.412Z,32.80
2019-04-14T10:06:31.402Z,33.55
2019-04-14T10:09:11.400Z,32.50
2019-04-14T10:11:48.885Z,31.90
2019-04-14T10:14:28.424Z,39.03
2019-04-14T10:17:01.556Z,36.13
2019-04-14T10:19:40.411Z,35.10
2019-04-14T10:22:16.418Z,36.48
2019-04-14T10:24:52.899Z,42.10
2019-04-14T10:27:32.424Z,33.10
2019-04-14T10:30:03.594Z,37.55
2019-04-14T10:32:35.851Z,37.80
2019-04-14T10:35:17.412Z,39.58
2019-04-14T10:37:52.792Z,37.30
2019-04-14T10:40:32.839Z,34.53
2019-04-14T10:43:10.014Z,38.28
2019-04-14T10:45:43.302Z,33.35
2019-04-14T10:48:24.414Z,30.80
2019-04-14T10:50:55.534Z,31.25
2019-04-14T10:53:35.421Z,31.97
2019-04-14T10:56:15.847Z,32.08
2019-04-14T10:58:51.595Z,32.08
2019-04-14T11:01:22.316Z,34.50
2019-04-14T11:03:57.676Z,31.10
2019-04-14T11:06:49.705Z,31.23
2019-04-14T11:09:21.046Z,31.25
2019-04-14T11:11:56.288Z,35.92
2019-04-14T11:14:30.994Z,39.53
2019-04-14T11:17:03.900Z,29.77
2019-04-14T11:19:42.304Z,30.50
2019-04-14T11:22:17.942Z,35.55
2019-04-14T11:24:51.852Z,32.83
2019-04-14T11:27:35.423Z,34.88
2019-04-14T11:30:11.546Z,32.10
2019-04-14T11:32:59.801Z,30.80
2019-04-14T11:35:51.420Z,42.23
2019-04-14T11:38:41.200Z,31.33
2019-04-14T11:41:24.838Z,32.00
2019-04-14T11:44:06.145Z,33.28
2019-04-14T11:46:39.104Z,32.48
2019-04-14T11:49:15.800Z,28.20
2019-04-14T11:51:55.089Z,65.22
2019-04-14T11:54:20.936Z,31.33
2019-04-14T11:56:56.905Z,30.40
2019-04-14T11:59:32.430Z,31.33
2019-04-14T12:02:08.284Z,30.00
2019-04-14T12:04:48.034Z,28.60
2019-04-14T12:07:36.568Z,34.53
2019-04-14T12:10:11.434Z,37.25
2019-04-14T12:12:42.768Z,33.88
2019-04-14T12:15:16.577Z,30.32
2019-04-14T12:17:53.436Z,28.32
2019-04-14T12:20:27.143Z,33.63
2019-04-14T12:23:08.446Z,30.90
2019-04-14T12:25:48.465Z,31.55
2019-04-14T12:28:21.934Z,30.50
2019-04-14T12:30:55.658Z,34.25
2019-04-14T12:33:25.706Z,31.00
2019-04-14T12:36:03.442Z,33.28
2019-04-14T12:38:36.792Z,35.38
2019-04-14T12:41:12.579Z,32.67
2019-04-14T12:44:06.298Z,34.73
2019-04-14T12:46:50.038Z,31.60
2019-04-14T12:49:29.447Z,33.23
2019-04-14T12:52:20.182Z,30.75
2019-04-14T12:54:43.639Z,29.92
2019-04-14T12:57:22.978Z,41.08
2019-04-14T12:59:58.943Z,36.20
2019-04-14T13:02:37.458Z,37.13
2019-04-14T13:05:18.446Z,33.35
2019-04-14T13:07:56.456Z,38.40
2019-04-14T13:10:27.571Z,33.85
2019-04-14T13:13:10.448Z,34.90
2019-04-14T13:15:46.253Z,31.10
2019-04-14T13:18:25.575Z,30.15
2019-04-14T13:21:02.466Z,32.58
2019-04-14T13:23:36.245Z,40.55
2019-04-14T13:26:10.271Z,38.65
2019-04-14T13:28:49.078Z,32.58
2019-04-14T13:31:20.754Z,31.77
2019-04-14T13:33:55.008Z,53.05
2019-04-14T13:36:34.462Z,34.40
2019-04-14T13:39:09.134Z,27.85
2019-04-14T13:41:47.463Z,27.98
2019-04-14T13:44:29.468Z,28.57
2019-04-14T13:47:08.471Z,30.35
2019-04-14T13:49:44.097Z,29.77
2019-04-14T13:52:15.347Z,34.20
2019-04-14T13:54:53.452Z,31.48
2019-04-14T13:57:33.406Z,31.60
2019-04-14T14:00:04.859Z,32.13
2019-04-14T14:02:41.423Z,29.50
2019-04-14T14:05:18.477Z,29.77
2019-04-14T14:07:58.475Z,46.25
2019-04-14T14:10:36.360Z,36.77
2019-04-14T14:13:22.476Z,36.55
2019-04-14T14:16:16.136Z,35.80
2019-04-14T14:19:04.464Z,33.67
2019-04-14T14:21:58.756Z,31.80
2019-04-14T14:24:41.352Z,37.30
2019-04-14T14:27:19.480Z,48.78
2019-04-14T14:29:57.498Z,39.20
2019-04-14T14:32:38.477Z,45.10
2019-04-14T14:35:15.477Z,35.08
2019-04-14T14:37:50.965Z,55.67
2019-04-14T14:40:24.273Z,40.10
2019-04-14T14:43:00.987Z,33.95
2019-04-14T14:45:43.642Z,33.10
2019-04-14T14:48:34.501Z,31.85
2019-04-14T14:51:13.487Z,30.70
2019-04-14T14:53:50.499Z,33.70
2019-04-14T14:56:25.694Z,29.32
2019-04-14T14:59:02.392Z,30.70
2019-04-14T15:01:34.020Z,27.98
2019-04-14T15:04:09.260Z,27.70
2019-04-14T15:06:40.206Z,27.52
2019-04-14T15:09:19.497Z,29.12
2019-04-14T15:11:54.257Z,33.78
2019-04-14T15:14:32.257Z,32.23
2019-04-14T15:17:08.572Z,27.48
2019-04-14T15:19:48.075Z,28.47
2019-04-14T15:22:20.956Z,30.08
2019-04-14T15:24:58.556Z,27.65
2019-04-14T15:27:29.889Z,27.13
2019-04-14T15:30:04.499Z,26.15
2019-04-14T15:32:38.022Z,36.10
2019-04-14T15:35:14.502Z,60.55
2019-04-14T15:37:54.507Z,26.97
2019-04-14T15:40:26.921Z,23.35
2019-04-14T15:43:08.289Z,34.95
2019-04-14T15:45:47.421Z,22.27
2019-04-14T15:48:18.776Z,22.98
2019-04-14T15:50:50.219Z,18.87
2019-04-14T15:53:36.693Z,21.73
2019-04-14T15:55:59.998Z,21.17
2019-04-14T15:58:41.174Z,21.95
2019-04-14T16:01:17.146Z,19.15
2019-04-14T16:03:55.508Z,20.50
2019-04-14T16:06:31.083Z,32.55
2019-04-14T16:09:17.164Z,31.30
2019-04-14T16:11:49.850Z,30.52
2019-04-14T16:14:31.628Z,32.53
2019-04-14T16:17:25.107Z,34.88
2019-04-14T16:20:08.521Z,74.03
2019-04-14T16:22:40.492Z,45.78
2019-04-14T16:25:12.764Z,52.48
2019-04-14T16:27:52.189Z,62.75
2019-04-14T16:30:39.119Z,49.93
2019-04-14T16:33:12.100Z,69.87
2019-04-14T16:35:48.159Z,59.15
2019-04-14T16:38:19.718Z,29.75
2019-04-14T16:40:51.364Z,31.57
2019-04-14T16:43:22.810Z,33.83
2019-04-14T16:45:57.576Z,38.53
2019-04-14T16:48:28.530Z,40.70
2019-04-14T16:50:59.891Z,37.70
2019-04-14T16:53:33.433Z,33.10
2019-04-14T16:56:04.533Z,28.55
2019-04-14T16:58:35.919Z,31.02
2019-04-14T17:01:10.535Z,36.45
2019-04-14T17:03:39.851Z,32.63
2019-04-14T17:06:13.123Z,30.95
2019-04-14T17:08:43.066Z,35.08
2019-04-14T17:11:12.861Z,30.32
2019-04-14T17:13:45.653Z,30.23
2019-04-14T17:16:17.415Z,26.10
2019-04-14T17:18:50.526Z,30.77
2019-04-14T17:21:22.573Z,27.48
2019-04-14T17:23:55.851Z,26.68
2019-04-14T17:26:43.878Z,26.77
2019-04-14T17:29:20.975Z,27.93
2019-04-14T17:31:59.718Z,23.83
2019-04-14T17:34:33.726Z,28.73
2019-04-14T17:37:11.315Z,27.30
2019-04-14T17:39:51.754Z,24.52
2019-04-14T17:42:23.409Z,26.07
2019-04-14T17:45:03.362Z,26.62
2019-04-14T17:47:43.416Z,27.90
2019-04-14T17:50:20.496Z,37.00
2019-04-14T17:53:08.354Z,43.23
2019-04-14T17:55:49.710Z,32.95
2019-04-14T17:58:16.145Z,30.10
2019-04-14T18:00:49.390Z,29.07
2019-04-14T18:03:27.415Z,26.75
2019-04-14T18:06:01.109Z,27.70
2019-04-14T18:08:48.096Z,27.85
2019-04-14T18:12:26.416Z,63.50
2019-04-14T18:43:55.636Z,26.07
2019-04-14T18:46:28.672Z,25.90
2019-04-14T18:49:00.278Z,26.25
2019-04-14T18:51:32.404Z,25.92
2019-04-14T18:54:02.792Z,25.95
2019-04-14T18:56:42.171Z,26.48
2019-04-14T18:59:27.639Z,28.62
2019-04-14T19:02:00.931Z,30.65
2019-04-14T19:04:29.814Z,33.05
2019-04-14T19:06:59.740Z,36.65
2019-04-14T19:09:29.846Z,29.60
2019-04-14T19:12:06.615Z,33.67
2019-04-14T19:14:36.998Z,29.48
2019-04-14T19:17:08.434Z,28.52
2019-04-14T19:19:41.874Z,28.47
2019-04-14T19:22:12.394Z,27.05
2019-04-14T19:24:41.179Z,28.67
2019-04-14T19:27:10.101Z,28.40
2019-04-14T19:29:39.100Z,28.23
2019-04-14T19:32:08.059Z,31.50
2019-04-14T19:34:38.418Z,30.27
2019-04-14T19:37:07.195Z,32.58
2019-04-14T19:39:36.085Z,32.50
2019-04-14T19:42:05.090Z,30.70
2019-04-14T19:44:33.848Z,29.98
2019-04-14T19:47:02.612Z,34.27
2019-04-14T19:49:33.070Z,32.35
2019-04-14T19:52:02.312Z,29.95
2019-04-14T19:54:31.188Z,29.75
2019-04-14T19:57:01.848Z,32.38
2019-04-14T20:01:58.988Z,29.98
2019-04-14T20:04:30.248Z,29.82
2019-04-14T20:06:59.404Z,32.65
2019-04-14T20:09:30.917Z,28.80
2019-04-14T20:12:00.485Z,32.33
2019-04-14T20:14:32.737Z,33.05
2019-04-14T20:17:06.331Z,32.40
2019-04-14T20:19:41.268Z,32.55
2019-04-14T20:22:20.510Z,24.02
2019-04-14T20:24:56.932Z,26.80
2019-04-14T20:27:33.449Z,21.45
2019-04-14T20:30:09.697Z,22.82
2019-04-14T20:32:42.929Z,18.77
2019-04-14T20:35:12.028Z,17.67
2019-04-14T20:37:40.853Z,15.55
2019-04-14T20:40:09.829Z,16.35
2019-04-14T20:42:38.834Z,13.35
2019-04-14T20:45:10.288Z,12.03
2019-04-14T20:47:39.265Z,12.23
2019-04-14T20:50:09.210Z,11.33
2019-04-14T20:52:42.277Z,10.48
2019-04-14T20:55:11.250Z,8.70
2019-04-14T20:57:41.430Z,10.85
2019-04-14T21:00:10.413Z,9.20
2019-04-14T21:02:40.836Z,8.53
2019-04-14T21:05:29.008Z,8.18
2019-04-14T21:08:25.833Z,7.25
2019-04-14T21:11:00.233Z,8.33
2019-04-14T21:13:42.437Z,8.05
2019-04-14T21:16:15.635Z,8.20
2019-04-14T21:18:46.034Z,6.97
2019-04-14T21:21:32.053Z,6.37
2019-04-14T21:24:20.372Z,7.28
2019-04-14T21:26:53.509Z,5.03
2019-04-14T21:29:41.335Z,5.45
2019-04-14T21:32:29.658Z,4.15
2019-04-14T21:35:13.554Z,3.70
2019-04-14T21:37:47.314Z,4.67
2019-04-14T21:40:21.389Z,4.85
2019-04-14T21:42:50.529Z,5.75
2019-04-14T21:45:19.308Z,4.45
2019-04-14T21:47:48.233Z,3.70
2019-04-14T21:50:17.148Z,6.78
2019-04-14T21:52:49.960Z,3.77
2019-04-14T21:55:20.570Z,3.40
2019-04-14T21:57:51.043Z,3.98
2019-04-14T22:00:37.549Z,3.95
2019-04-14T22:03:20.033Z,2.83
2019-04-14T22:05:50.623Z,3.98
2019-04-14T22:08:25.295Z,3.08
2019-04-14T22:11:04.855Z,3.33
2019-04-14T22:13:33.727Z,3.93
2019-04-14T22:16:04.469Z,4.83
2019-04-14T22:21:02.297Z,3.47
2019-04-14T22:23:33.614Z,3.90
2019-04-14T22:26:04.114Z,6.08
2019-04-14T22:28:33.169Z,3.52
2019-04-14T22:31:03.371Z,3.00
2019-04-14T22:33:32.147Z,2.60
2019-04-14T22:36:00.987Z,3.00
2019-04-14T22:38:31.618Z,2.83
2019-04-14T22:43:28.408Z,3.05
2019-04-14T22:45:58.814Z,2.58
2019-04-14T22:48:27.674Z,1.87
2019-04-14T22:50:59.402Z,2.10
2019-04-14T22:53:28.235Z,2.12
2019-04-14T22:55:57.045Z,2.27
2019-04-14T22:58:27.476Z,2.10
2019-04-14T23:00:57.876Z,3.52
2019-04-14T23:03:35.494Z,5.47
2019-04-14T23:06:06.008Z,2.50
2019-04-14T23:08:49.029Z,3.15
2019-04-14T23:11:35.713Z,2.20
2019-04-14T23:14:21.310Z,4.35
2019-04-14T23:16:51.697Z,2.37
2019-04-14T23:19:29.668Z,1.95
2019-04-14T23:22:00.110Z,3.02
2019-04-14T23:24:33.135Z,2.62
2019-04-14T23:27:06.293Z,1.90
2019-04-14T23:29:38.474Z,2.40
2019-04-14T23:32:07.520Z,2.67
2019-04-14T23:34:39.440Z,2.25
2019-04-14T23:37:09.703Z,5.30
2019-04-14T23:39:39.640Z,4.85
2019-04-14T23:42:10.420Z,2.27
2019-04-14T23:44:43.627Z,1.75
2019-04-14T23:47:14.119Z,3.87
2019-04-14T23:49:43.720Z,3.00
2019-04-14T23:52:13.659Z,2.87
2019-04-14T23:54:48.220Z,3.22
2019-04-14T23:57:15.999Z,1.60
2019-04-14T23:59:44.803Z,2.05
